createdAt,value
2019-03-31T00:00:43.498Z,8.14
2019-03-31T00:03:48.325Z,8.11
2019-03-31T00:06:54.524Z,8.14
2019-03-31T00:10:01.124Z,8.07
2019-03-31T00:13:05.968Z,8.10
2019-03-31T00:16:10.803Z,8.15
2019-03-31T00:19:15.713Z,8.11
2019-03-31T00:22:20.778Z,8.08
2019-03-31T00:25:25.610Z,8.11
2019-03-31T00:28:30.475Z,8.03
2019-03-31T00:31:35.332Z,7.93
2019-03-31T00:34:43.308Z,7.98
2019-03-31T00:37:48.119Z,7.95
2019-03-31T00:40:52.999Z,7.83
2019-03-31T00:43:57.913Z,7.73
2019-03-31T00:47:02.783Z,7.69
2019-03-31T00:50:08.034Z,7.64
2019-03-31T00:53:12.873Z,7.61
2019-03-31T00:56:17.684Z,7.56
2019-03-31T00:59:22.616Z,7.50
2019-03-31T01:02:32.523Z,7.36
2019-03-31T01:05:39.379Z,7.31
2019-03-31T01:08:44.595Z,7.23
2019-03-31T01:11:50.197Z,7.14
2019-03-31T01:14:55.115Z,7.11
2019-03-31T01:18:00.287Z,7.01
2019-03-31T01:21:05.237Z,7.01
2019-03-31T01:24:10.276Z,6.98
2019-03-31T01:27:15.266Z,7.00
2019-03-31T01:30:20.909Z,6.89
2019-03-31T01:33:26.620Z,6.83
2019-03-31T01:36:31.561Z,6.74
2019-03-31T01:39:36.765Z,6.66
2019-03-31T01:42:41.586Z,6.60
2019-03-31T01:45:46.511Z,6.54
2019-03-31T01:48:51.414Z,6.52
2019-03-31T01:51:56.239Z,6.45
2019-03-31T01:55:01.107Z,6.39
2019-03-31T01:58:05.958Z,6.30
2019-03-31T02:01:13.173Z,6.31
2019-03-31T02:04:18.018Z,6.31
2019-03-31T02:07:22.982Z,6.21
2019-03-31T02:10:27.813Z,6.20
2019-03-31T02:13:32.664Z,6.18
2019-03-31T02:16:38.595Z,6.09
2019-03-31T02:19:43.570Z,6.03
2019-03-31T02:22:48.387Z,6.10
2019-03-31T02:25:53.209Z,5.96
2019-03-31T02:28:58.079Z,5.93
2019-03-31T02:32:22.100Z,5.91
2019-03-31T02:35:10.630Z,5.84
2019-03-31T02:38:15.556Z,5.83
2019-03-31T02:41:20.409Z,5.82
2019-03-31T02:44:25.231Z,5.77
2019-03-31T02:47:30.088Z,5.75
2019-03-31T02:50:59.637Z,5.71
2019-03-31T02:54:04.475Z,5.66
2019-03-31T02:57:09.676Z,5.64
2019-03-31T03:00:14.478Z,5.61
2019-03-31T03:03:20.489Z,5.61
2019-03-31T03:06:28.726Z,5.63
2019-03-31T03:09:35.678Z,5.64
2019-03-31T03:12:44.588Z,5.60
2019-03-31T03:16:14.485Z,5.63
2019-03-31T03:19:23.385Z,5.65
2019-03-31T03:22:31.237Z,5.61
2019-03-31T03:25:36.063Z,5.57
2019-03-31T03:28:40.865Z,5.63
2019-03-31T03:31:45.681Z,5.55
2019-03-31T03:34:50.555Z,5.51
2019-03-31T03:37:55.359Z,5.53
2019-03-31T03:41:00.174Z,5.48
2019-03-31T03:44:04.994Z,5.47
2019-03-31T03:47:09.811Z,5.46
2019-03-31T03:50:14.625Z,5.43
2019-03-31T03:53:19.438Z,5.41
2019-03-31T03:56:28.749Z,5.40
2019-03-31T03:59:30.776Z,5.36
2019-03-31T04:02:35.588Z,5.33
2019-03-31T04:06:17.347Z,5.31
2019-03-31T04:14:04.046Z,5.35
2019-03-31T04:18:02.896Z,5.33
2019-03-31T04:21:12.783Z,5.32
2019-03-31T04:41:29.365Z,5.14
2019-03-31T04:49:59.328Z,5.14
2019-03-31T05:00:48.415Z,5.07
2019-03-31T05:04:12.940Z,5.07
2019-03-31T05:39:42.948Z,4.78
2019-03-31T05:50:55.928Z,4.80
2019-03-31T05:54:10.162Z,4.82
2019-03-31T06:09:10.171Z,5.02
2019-03-31T06:12:20.327Z,5.01
2019-03-31T06:16:20.806Z,5.04
2019-03-31T06:19:51.033Z,5.11
2019-03-31T06:25:10.913Z,5.20
2019-03-31T06:27:01.715Z,5.37
2019-03-31T06:30:39.346Z,5.28
2019-03-31T06:33:49.461Z,5.46
2019-03-31T06:37:33.984Z,5.39
2019-03-31T06:45:06.047Z,5.52
2019-03-31T06:48:34.917Z,5.56
2019-03-31T06:52:15.433Z,5.60
2019-03-31T06:56:46.975Z,5.68
2019-03-31T07:03:32.961Z,5.83
2019-03-31T07:06:50.397Z,5.92
2019-03-31T07:33:37.632Z,6.57
2019-03-31T07:41:26.879Z,6.74
2019-03-31T07:49:00.904Z,6.42
2019-03-31T07:52:56.229Z,6.56
2019-03-31T07:56:26.374Z,6.80
2019-03-31T08:03:39.681Z,6.99
2019-03-31T08:06:54.346Z,7.30
2019-03-31T08:10:47.310Z,6.92
2019-03-31T08:14:18.006Z,6.97
2019-03-31T08:18:26.206Z,7.10
2019-03-31T08:22:17.458Z,7.24
2019-03-31T08:26:02.378Z,7.46
2019-03-31T08:29:26.510Z,7.75
2019-03-31T08:32:34.653Z,7.51
2019-03-31T08:35:49.024Z,7.56
2019-03-31T08:38:55.778Z,7.55
2019-03-31T08:42:27.696Z,7.85
2019-03-31T08:45:33.094Z,7.81
2019-03-31T08:48:38.599Z,7.74
2019-03-31T08:51:46.462Z,7.97
2019-03-31T08:55:19.538Z,7.88
2019-03-31T08:59:00.077Z,7.95
2019-03-31T09:10:20.830Z,7.69
2019-03-31T09:13:39.563Z,7.79
2019-03-31T09:23:12.245Z,8.28
2019-03-31T09:26:50.497Z,8.51
2019-03-31T09:34:11.574Z,8.64
2019-03-31T09:37:21.239Z,8.81
2019-03-31T09:40:42.575Z,8.50
2019-03-31T09:44:25.685Z,8.58
2019-03-31T09:47:52.133Z,8.52
2019-03-31T09:50:57.374Z,8.80
2019-03-31T09:54:02.824Z,8.83
2019-03-31T10:02:32.490Z,8.78
2019-03-31T10:05:10.130Z,9.18
2019-03-31T10:08:14.964Z,9.24
2019-03-31T10:11:19.764Z,9.11
2019-03-31T10:14:24.647Z,9.28
2019-03-31T10:17:29.459Z,9.29
2019-03-31T10:20:34.262Z,9.48
2019-03-31T10:23:39.366Z,9.19
2019-03-31T10:26:44.201Z,9.05
2019-03-31T10:29:49.084Z,9.19
2019-03-31T10:32:53.984Z,9.63
2019-03-31T10:35:58.837Z,9.62
2019-03-31T10:39:05.399Z,9.59
2019-03-31T10:42:10.247Z,9.71
2019-03-31T10:45:15.096Z,9.76
2019-03-31T10:48:21.285Z,9.91
2019-03-31T10:51:26.601Z,9.91
2019-03-31T10:54:31.414Z,9.86
2019-03-31T10:57:36.225Z,9.54
2019-03-31T11:00:44.312Z,9.74
2019-03-31T11:03:47.611Z,9.70
2019-03-31T11:06:58.959Z,9.66
2019-03-31T11:09:59.049Z,9.65
2019-03-31T11:13:04.007Z,10.08
2019-03-31T11:16:08.835Z,10.19
2019-03-31T11:19:13.660Z,9.82
2019-03-31T11:22:25.030Z,9.42
2019-03-31T11:25:29.844Z,9.30
2019-03-31T11:28:34.663Z,9.59
2019-03-31T11:31:39.486Z,9.93
2019-03-31T11:34:44.360Z,10.24
2019-03-31T11:37:49.307Z,10.07
2019-03-31T11:40:54.128Z,10.00
2019-03-31T11:43:58.955Z,10.24
2019-03-31T11:47:03.812Z,10.12
2019-03-31T11:50:09.683Z,10.48
2019-03-31T11:53:14.522Z,10.29
2019-03-31T11:56:19.363Z,9.66
2019-03-31T11:59:24.192Z,9.79
2019-03-31T12:02:29.003Z,9.67
2019-03-31T12:05:33.860Z,9.84
2019-03-31T12:08:41.053Z,10.32
2019-03-31T12:11:46.064Z,10.13
2019-03-31T12:15:00.364Z,10.50
2019-03-31T12:17:57.515Z,10.60
2019-03-31T12:21:05.843Z,10.32
2019-03-31T12:24:10.375Z,10.50
2019-03-31T12:27:16.268Z,9.94
2019-03-31T12:30:28.208Z,10.05
2019-03-31T12:33:36.090Z,10.65
2019-03-31T12:36:40.904Z,11.08
2019-03-31T12:39:48.036Z,10.88
2019-03-31T12:42:52.874Z,10.31
2019-03-31T12:45:57.699Z,10.08
2019-03-31T12:49:02.558Z,9.95
2019-03-31T12:52:07.373Z,10.49
2019-03-31T12:55:12.365Z,10.81
2019-03-31T12:58:17.223Z,10.96
2019-03-31T13:01:22.084Z,10.77
2019-03-31T13:04:26.969Z,10.68
2019-03-31T13:07:31.768Z,10.85
2019-03-31T13:10:36.677Z,11.18
2019-03-31T13:13:44.549Z,11.20
2019-03-31T13:16:52.141Z,11.29
2019-03-31T13:19:56.982Z,11.11
2019-03-31T13:23:01.804Z,11.22
2019-03-31T13:26:06.625Z,11.80
2019-03-31T13:29:11.482Z,11.51
2019-03-31T13:32:16.294Z,11.13
2019-03-31T13:35:21.119Z,10.97
2019-03-31T13:38:26.022Z,10.93
2019-03-31T13:41:32.715Z,10.96
2019-03-31T13:44:37.551Z,10.87
2019-03-31T13:47:42.379Z,10.92
2019-03-31T13:50:47.207Z,11.03
2019-03-31T13:53:52.034Z,11.26
2019-03-31T13:56:57.361Z,11.24
2019-03-31T14:00:02.759Z,10.99
2019-03-31T14:03:07.570Z,10.71
2019-03-31T14:06:12.398Z,10.35
2019-03-31T14:09:17.224Z,10.75
2019-03-31T14:12:22.036Z,11.11
2019-03-31T14:15:26.868Z,10.77
2019-03-31T14:18:31.720Z,10.68
2019-03-31T14:21:39.944Z,9.84
2019-03-31T14:24:43.074Z,9.50
2019-03-31T14:27:47.883Z,9.87
2019-03-31T14:30:52.703Z,10.18
2019-03-31T14:33:57.542Z,10.49
2019-03-31T14:37:02.354Z,10.38
2019-03-31T14:40:07.362Z,10.15
2019-03-31T14:43:14.995Z,10.17
2019-03-31T14:46:19.915Z,10.40
2019-03-31T14:49:25.980Z,10.42
2019-03-31T14:52:30.961Z,10.47
2019-03-31T14:55:35.944Z,10.50
2019-03-31T14:58:40.716Z,10.66
2019-03-31T15:01:45.543Z,10.16
2019-03-31T15:04:50.389Z,9.91
2019-03-31T15:07:58.293Z,9.98
2019-03-31T15:11:01.815Z,10.08
2019-03-31T15:14:09.907Z,10.06
2019-03-31T15:17:14.779Z,10.15
2019-03-31T15:20:22.979Z,10.16
2019-03-31T15:23:29.424Z,10.31
2019-03-31T15:26:35.396Z,10.40
2019-03-31T15:29:40.235Z,10.12
2019-03-31T15:32:45.092Z,10.06
2019-03-31T15:35:49.942Z,10.07
2019-03-31T15:39:07.847Z,10.18
2019-03-31T15:42:01.317Z,10.24
2019-03-31T15:45:06.979Z,10.60
2019-03-31T15:48:11.872Z,10.88
2019-03-31T15:51:16.707Z,10.98
2019-03-31T15:54:21.681Z,11.22
2019-03-31T15:57:26.527Z,10.71
2019-03-31T16:00:31.382Z,10.50
2019-03-31T16:03:38.994Z,10.50
2019-03-31T16:06:43.818Z,10.37
2019-03-31T16:09:50.217Z,10.48
2019-03-31T16:13:00.335Z,10.38
2019-03-31T16:16:15.395Z,10.54
2019-03-31T16:19:21.833Z,10.20
2019-03-31T16:22:29.360Z,10.05
2019-03-31T16:25:39.022Z,9.67
2019-03-31T16:29:00.633Z,9.67
2019-03-31T16:35:43.867Z,9.71
2019-03-31T16:38:50.795Z,9.51
2019-03-31T16:41:55.547Z,9.17
2019-03-31T16:45:30.259Z,9.16
2019-03-31T16:48:50.402Z,9.04
2019-03-31T16:51:57.854Z,8.98
2019-03-31T16:55:02.991Z,8.96
2019-03-31T16:58:09.471Z,9.13
2019-03-31T17:01:13.995Z,9.11
2019-03-31T17:04:30.739Z,8.83
2019-03-31T17:07:41.129Z,8.70
2019-03-31T17:10:45.819Z,8.80
2019-03-31T17:13:52.173Z,8.79
2019-03-31T17:16:59.722Z,8.94
2019-03-31T17:20:05.737Z,8.97
2019-03-31T17:23:10.326Z,8.68
2019-03-31T17:26:15.164Z,8.31
2019-03-31T17:29:27.200Z,7.97
2019-03-31T17:32:54.270Z,7.84
2019-03-31T17:36:01.934Z,7.62
2019-03-31T17:39:08.495Z,7.49
2019-03-31T17:42:13.159Z,7.50
2019-03-31T17:45:18.864Z,7.38
2019-03-31T17:48:26.264Z,7.32
2019-03-31T17:51:30.865Z,7.29
2019-03-31T17:54:35.343Z,7.15
2019-03-31T17:57:42.382Z,7.11
2019-03-31T18:00:46.086Z,6.95
2019-03-31T18:03:51.040Z,6.87
2019-03-31T18:06:55.615Z,6.78
2019-03-31T18:10:00.499Z,6.68
2019-03-31T18:13:05.549Z,6.65
2019-03-31T18:16:10.171Z,6.59
2019-03-31T18:19:14.859Z,6.53
2019-03-31T18:22:23.121Z,6.52
2019-03-31T18:25:28.028Z,6.49
2019-03-31T18:28:33.497Z,6.59
2019-03-31T18:31:42.063Z,6.33
2019-03-31T18:34:47.144Z,6.29
2019-03-31T18:37:54.495Z,6.21
2019-03-31T18:45:15.190Z,5.95
2019-03-31T18:48:20.297Z,5.91
2019-03-31T18:51:25.779Z,5.84
2019-03-31T18:54:51.598Z,5.79
2019-03-31T18:58:25.665Z,5.66
2019-03-31T19:01:52.050Z,5.58
2019-03-31T19:08:59.785Z,5.53
2019-03-31T19:12:22.951Z,5.52
2019-03-31T19:16:04.534Z,5.39
2019-03-31T19:19:29.967Z,5.32
2019-03-31T19:22:56.232Z,5.28
2019-03-31T19:26:26.991Z,5.27
2019-03-31T19:29:50.829Z,5.18
2019-03-31T19:33:44.388Z,5.15
2019-03-31T19:37:12.244Z,5.04
2019-03-31T19:44:30.793Z,5.07
2019-03-31T19:48:01.341Z,4.91
2019-03-31T19:51:42.381Z,4.79
2019-03-31T19:59:29.321Z,4.74
2019-03-31T20:07:30.265Z,4.64
2019-03-31T20:34:30.904Z,4.32
2019-03-31T20:49:31.750Z,4.14
2019-03-31T20:52:56.990Z,4.12
2019-03-31T20:56:05.387Z,4.04
2019-03-31T20:59:11.927Z,3.99
2019-03-31T21:02:32.073Z,3.96
2019-03-31T21:28:54.686Z,3.58
2019-03-31T21:32:33.689Z,3.55
2019-03-31T21:47:59.772Z,3.48
2019-03-31T21:51:34.443Z,3.44
2019-03-31T21:54:45.843Z,3.37
2019-03-31T21:58:02.451Z,3.37
2019-03-31T22:01:13.990Z,3.33
2019-03-31T22:04:39.767Z,3.30
2019-03-31T22:08:20.702Z,3.22
2019-03-31T22:11:35.920Z,3.22
2019-03-31T22:15:13.514Z,3.27
2019-03-31T22:18:18.665Z,3.27
2019-03-31T22:22:10.502Z,3.19
2019-03-31T22:25:42.265Z,3.15
2019-03-31T22:28:51.651Z,3.16
2019-03-31T22:35:34.780Z,3.10
2019-03-31T22:39:09.077Z,3.05
2019-03-31T22:42:42.276Z,3.03
2019-03-31T22:45:47.388Z,2.96
2019-03-31T22:48:56.243Z,2.94
2019-03-31T22:52:01.526Z,2.94
2019-03-31T22:59:35.940Z,3.05
2019-03-31T23:03:17.687Z,2.99
2019-03-31T23:06:25.253Z,2.96
2019-03-31T23:09:42.068Z,2.90
2019-03-31T23:12:49.933Z,2.87
2019-03-31T23:15:54.996Z,2.85
2019-03-31T23:18:59.743Z,2.83
2019-03-31T23:22:28.277Z,2.82
2019-03-31T23:25:50.968Z,2.76
2019-03-31T23:28:59.837Z,2.72
2019-03-31T23:35:36.389Z,2.70
2019-03-31T23:38:41.411Z,2.74
2019-03-31T23:41:46.703Z,2.71
2019-03-31T23:44:59.084Z,2.66
2019-03-31T23:48:32.480Z,2.55
2019-03-31T23:51:41.005Z,2.49
2019-03-31T23:54:45.936Z,2.42
2019-03-31T23:57:54.149Z,2.38
